aviador You're here:

KTCM Decoded Metar

TACOMA in WA, USA
Report Time2017-09-26 11:58:00
UTC Time2017-09-26 12:38:24
Flight Rules vfr VFR
WindCalm
Visibility9999 m
Phenomena:N/A
Clouds:Broken 031 Hf
Ceiling3,100 ft
Temp13°C (ISA -1)
Dew Point13°C (100% RH)
QNH1021 hPa
Density Alt92 ft
Elevation322 ft
Report Wrong Elevation
Raw Report
METAR KTCM 261158Z 00000KT 10SM BKN031 13/13 A3015 RMK AO2A SLP215
T01300130 10149 20118 53004 $=

Extra information for KTCM:More info

Metar Taf Metar & Taf Last 4 Metars F.Rules Stats Wind Profile Meteogram Temp Stats Airport Information Weather charts Add Link Nearby VenuesMetar ALERT Operation Metar Decoded Social comments

AIRNAV info for KTCM